createdAt,value
2022-11-21T00:00:45.005Z,1.36
2022-11-21T00:01:48.715Z,1.39
2022-11-21T00:02:52.891Z,1.50
2022-11-21T00:03:54.977Z,1.48
2022-11-21T00:04:57.408Z,1.37
2022-11-21T00:06:00.967Z,1.34
2022-11-21T00:07:02.917Z,1.36
2022-11-21T00:08:05.191Z,1.39
2022-11-21T00:09:07.066Z,1.38
2022-11-21T00:10:09.575Z,1.33
2022-11-21T00:11:11.383Z,1.24
2022-11-21T00:12:17.393Z,1.13
2022-11-21T00:13:20.132Z,1.21
2022-11-21T00:14:22.067Z,1.20
2022-11-21T00:15:25.655Z,1.26
2022-11-21T00:16:27.604Z,1.36
2022-11-21T00:17:29.202Z,1.31
2022-11-21T00:18:32.764Z,1.23
2022-11-21T00:19:35.017Z,1.18
2022-11-21T00:20:37.822Z,1.14
2022-11-21T00:21:39.946Z,1.16
2022-11-21T00:22:41.849Z,1.10
2022-11-21T00:23:44.765Z,1.05
2022-11-21T00:24:50.520Z,0.98
2022-11-21T00:25:51.005Z,1.03
2022-11-21T00:26:52.874Z,1.08
2022-11-21T00:27:54.520Z,1.09
2022-11-21T00:28:56.249Z,1.04
2022-11-21T00:29:57.996Z,1.08
2022-11-21T00:30:59.907Z,1.14
2022-11-21T00:32:01.862Z,1.23
2022-11-21T00:33:03.877Z,1.15
2022-11-21T00:34:05.704Z,1.13
2022-11-21T00:35:08.006Z,1.18
2022-11-21T00:36:10.531Z,1.18
2022-11-21T00:37:12.510Z,1.25
2022-11-21T00:38:15.194Z,1.27
2022-11-21T00:39:16.997Z,1.21
2022-11-21T00:40:19.054Z,1.21
2022-11-21T00:41:20.748Z,1.13
2022-11-21T00:42:22.414Z,1.16
2022-11-21T00:43:27.209Z,1.13
2022-11-21T00:44:29.207Z,1.15
2022-11-21T00:45:31.141Z,1.21
2022-11-21T00:46:34.097Z,1.19
2022-11-21T00:47:36.134Z,1.23
2022-11-21T00:48:38.569Z,1.26
2022-11-21T00:49:40.573Z,1.24
2022-11-21T00:50:43.452Z,1.30
2022-11-21T00:51:45.443Z,1.33
2022-11-21T00:52:47.328Z,1.27
2022-11-21T00:53:50.130Z,1.25
2022-11-21T00:54:52.335Z,1.25
2022-11-21T00:55:54.093Z,1.25
2022-11-21T00:56:55.974Z,1.25
2022-11-21T00:57:57.699Z,1.26
2022-11-21T00:58:59.697Z,1.33
2022-11-21T01:00:01.925Z,1.34
2022-11-21T01:01:12.543Z,1.39
2022-11-21T01:02:14.896Z,1.40
2022-11-21T01:03:16.721Z,1.42
2022-11-21T01:04:19.103Z,1.42
2022-11-21T01:05:24.830Z,1.48
2022-11-21T01:06:27.649Z,1.53
2022-11-21T01:07:29.511Z,1.57
2022-11-21T01:08:32.287Z,1.63
2022-11-21T01:09:34.869Z,1.63
2022-11-21T01:10:37.418Z,1.59
2022-11-21T01:11:39.346Z,1.63
2022-11-21T01:12:41.552Z,1.65
2022-11-21T01:13:44.208Z,1.61
2022-11-21T01:14:46.531Z,1.62
2022-11-21T01:15:48.379Z,1.51
2022-11-21T01:16:50.551Z,1.51
2022-11-21T01:17:52.425Z,1.56
2022-11-21T01:18:55.450Z,1.58
2022-11-21T01:19:57.302Z,1.56
2022-11-21T01:21:01.934Z,1.54
2022-11-21T01:22:03.894Z,1.38
2022-11-21T01:23:05.952Z,1.33
2022-11-21T01:24:12.811Z,1.32
2022-11-21T01:25:16.132Z,1.31
2022-11-21T01:26:22.296Z,1.32
2022-11-21T01:27:24.406Z,1.34
2022-11-21T01:28:26.149Z,1.34
2022-11-21T01:29:28.171Z,1.33
2022-11-21T01:30:30.059Z,1.38
2022-11-21T01:31:32.292Z,1.44
2022-11-21T01:32:34.769Z,1.41
2022-11-21T01:33:39.929Z,1.46
2022-11-21T01:34:41.899Z,1.49
2022-11-21T01:35:44.871Z,1.53
2022-11-21T01:36:47.409Z,1.58
2022-11-21T01:37:49.826Z,1.59
2022-11-21T01:38:54.026Z,1.63
2022-11-21T01:39:55.908Z,1.69
2022-11-21T01:40:57.824Z,1.73
2022-11-21T01:41:59.499Z,1.80
2022-11-21T01:43:05.342Z,1.70
2022-11-21T01:44:19.690Z,1.70
2022-11-21T01:45:48.236Z,1.73
2022-11-21T01:46:51.921Z,1.81
2022-11-21T01:47:54.386Z,1.85
2022-11-21T01:49:05.677Z,1.86
2022-11-21T01:50:12.824Z,1.88
2022-11-21T01:51:21.872Z,1.88
2022-11-21T01:52:27.407Z,1.87
2022-11-21T01:53:29.810Z,1.91
2022-11-21T01:55:51.466Z,2.07
2022-11-21T01:57:02.611Z,1.93
2022-11-21T01:58:04.780Z,1.88
2022-11-21T01:59:09.241Z,1.88
2022-11-21T02:00:20.667Z,1.88
2022-11-21T02:01:23.827Z,1.87
2022-11-21T02:02:32.222Z,1.75
2022-11-21T02:03:37.639Z,1.74
2022-11-21T02:04:42.796Z,1.70
2022-11-21T02:05:45.413Z,1.69
2022-11-21T02:06:48.729Z,1.70
2022-11-21T02:07:53.740Z,1.69
2022-11-21T02:08:58.186Z,1.71
2022-11-21T02:10:02.672Z,1.72
2022-11-21T02:11:32.441Z,1.75
2022-11-21T02:12:52.848Z,1.81
2022-11-21T02:13:55.595Z,1.88
2022-11-21T02:14:58.735Z,1.90
2022-11-21T02:16:02.341Z,1.88
2022-11-21T02:17:07.352Z,1.91
2022-11-21T02:18:09.401Z,1.86
2022-11-21T02:19:20.578Z,1.93
2022-11-21T02:20:25.113Z,1.93
2022-11-21T02:21:57.035Z,1.97
2022-11-21T02:23:15.063Z,2.07
2022-11-21T02:24:29.952Z,2.15
2022-11-21T02:25:35.560Z,2.13
2022-11-21T02:26:38.232Z,2.16
2022-11-21T02:27:40.534Z,2.15
2022-11-21T02:28:44.188Z,2.10
2022-11-21T02:29:46.763Z,2.09
2022-11-21T02:30:49.180Z,2.11
2022-11-21T02:31:51.057Z,2.14
2022-11-21T02:32:53.082Z,2.14
2022-11-21T02:33:54.866Z,2.10
2022-11-21T02:34:56.690Z,2.09
2022-11-21T02:36:00.590Z,2.03
2022-11-21T02:37:02.478Z,2.01
2022-11-21T02:38:26.696Z,2.01
2022-11-21T02:39:32.207Z,2.03
2022-11-21T02:40:37.948Z,2.02
2022-11-21T02:41:49.284Z,2.03
2022-11-21T02:43:09.525Z,2.04
2022-11-21T02:44:22.484Z,2.05
2022-11-21T02:45:28.263Z,2.12
2022-11-21T02:46:30.462Z,2.16
2022-11-21T02:47:34.993Z,2.18
2022-11-21T02:48:38.176Z,2.22
2022-11-21T02:49:46.623Z,2.22
2022-11-21T02:50:48.470Z,2.26
2022-11-21T02:51:50.225Z,2.32
2022-11-21T02:52:52.216Z,2.32
2022-11-21T02:53:54.061Z,2.32
2022-11-21T02:54:56.307Z,2.28
2022-11-21T02:55:58.585Z,2.24
2022-11-21T02:57:02.908Z,2.22
2022-11-21T02:58:05.977Z,2.21
2022-11-21T02:59:08.337Z,2.17
2022-11-21T03:00:11.525Z,2.19
2022-11-21T03:01:13.964Z,2.19
2022-11-21T03:02:16.322Z,2.19
2022-11-21T03:03:18.608Z,2.12
2022-11-21T03:04:20.402Z,2.07
2022-11-21T03:05:23.241Z,2.04
2022-11-21T03:06:25.153Z,2.02
2022-11-21T03:07:27.568Z,2.04
2022-11-21T03:08:30.237Z,2.05
2022-11-21T03:09:32.112Z,2.08
2022-11-21T03:10:35.064Z,2.07
2022-11-21T03:11:36.798Z,2.03
2022-11-21T03:12:40.194Z,1.99
2022-11-21T03:13:42.454Z,2.02
2022-11-21T03:14:44.786Z,1.98
2022-11-21T03:15:47.492Z,1.93
2022-11-21T03:16:49.551Z,1.94
2022-11-21T03:17:51.187Z,1.96
2022-11-21T03:18:52.819Z,1.98
2022-11-21T03:19:54.978Z,2.00
2022-11-21T03:20:57.466Z,2.05
2022-11-21T03:21:59.331Z,1.93
2022-11-21T03:23:01.539Z,1.81
2022-11-21T03:24:04.200Z,1.83
2022-11-21T03:25:06.605Z,1.88
2022-11-21T03:26:10.293Z,1.94
2022-11-21T03:27:12.304Z,2.02
2022-11-21T03:28:14.134Z,1.99
2022-11-21T03:29:16.002Z,1.93
2022-11-21T03:30:19.993Z,1.91
2022-11-21T03:31:22.371Z,1.91
2022-11-21T03:32:24.395Z,1.91
2022-11-21T03:33:26.162Z,1.94
2022-11-21T03:34:28.291Z,2.03
2022-11-21T03:35:30.722Z,2.06
2022-11-21T03:36:32.743Z,2.11
2022-11-21T03:37:34.399Z,2.20
2022-11-21T03:38:36.040Z,2.25
2022-11-21T03:39:37.672Z,2.33
2022-11-21T03:40:39.565Z,2.39
2022-11-21T03:41:41.912Z,2.24
2022-11-21T03:42:44.003Z,2.21
2022-11-21T03:43:45.756Z,2.20
2022-11-21T03:44:47.419Z,2.23
2022-11-21T03:45:49.743Z,2.28
2022-11-21T03:46:51.513Z,2.28
2022-11-21T03:47:53.250Z,2.30
2022-11-21T03:48:55.607Z,2.31
2022-11-21T03:49:57.613Z,2.33
2022-11-21T03:50:59.518Z,2.35
2022-11-21T03:52:01.400Z,2.38
2022-11-21T03:53:03.153Z,2.40
2022-11-21T03:54:05.911Z,2.44
2022-11-21T03:55:08.125Z,2.44
2022-11-21T03:56:10.644Z,2.45
2022-11-21T03:57:12.531Z,2.50
2022-11-21T03:58:14.180Z,2.52
2022-11-21T03:59:16.531Z,2.55
2022-11-21T04:00:19.083Z,2.56
2022-11-21T04:01:21.903Z,2.57
2022-11-21T04:02:23.875Z,2.61
2022-11-21T04:03:25.898Z,2.42
2022-11-21T04:04:27.844Z,2.38
2022-11-21T04:05:29.817Z,2.37
2022-11-21T04:06:31.866Z,2.38
2022-11-21T04:07:33.698Z,2.39
2022-11-21T04:08:35.768Z,2.38
2022-11-21T04:09:37.442Z,2.40
2022-11-21T04:10:39.276Z,2.41
2022-11-21T04:11:40.925Z,2.43
2022-11-21T04:12:42.685Z,2.44
2022-11-21T04:13:44.521Z,2.38
2022-11-21T04:14:46.730Z,2.39
2022-11-21T04:15:49.112Z,2.38
2022-11-21T04:16:50.932Z,2.31
2022-11-21T04:17:52.795Z,2.16
2022-11-21T04:18:55.187Z,2.17
2022-11-21T04:19:57.124Z,2.20
2022-11-21T04:21:01.883Z,2.24
2022-11-21T04:22:04.043Z,2.25
2022-11-21T04:23:06.738Z,2.28
2022-11-21T04:24:08.635Z,2.33
2022-11-21T04:25:11.317Z,2.35
2022-11-21T04:26:15.297Z,2.37
2022-11-21T04:27:17.222Z,2.37
2022-11-21T04:28:19.573Z,2.39
2022-11-21T04:29:21.382Z,2.38
2022-11-21T04:30:23.392Z,2.37
2022-11-21T04:31:25.128Z,2.40
2022-11-21T04:32:26.857Z,2.42
2022-11-21T04:33:29.062Z,2.36
2022-11-21T04:34:31.265Z,2.30
2022-11-21T04:35:33.382Z,2.26
2022-11-21T04:36:35.827Z,2.24
2022-11-21T04:37:38.913Z,2.27
2022-11-21T04:38:41.161Z,2.28
2022-11-21T04:39:42.925Z,2.26
2022-11-21T04:40:44.708Z,2.28
2022-11-21T04:41:46.897Z,2.25
2022-11-21T04:42:48.688Z,2.26
2022-11-21T04:43:51.033Z,2.29
2022-11-21T04:44:52.857Z,2.29
2022-11-21T04:45:54.613Z,2.24
2022-11-21T04:46:59.911Z,2.24
2022-11-21T04:48:00.398Z,2.22
2022-11-21T04:49:03.445Z,2.14
2022-11-21T04:50:09.001Z,2.12
2022-11-21T04:51:10.795Z,2.15
2022-11-21T04:52:12.794Z,2.09
2022-11-21T04:53:14.446Z,2.09
2022-11-21T04:54:16.567Z,2.14
2022-11-21T04:55:20.708Z,2.12
2022-11-21T04:56:22.927Z,2.17
2022-11-21T06:16:23.549Z,0.78
2022-11-21T06:17:25.470Z,0.67
2022-11-21T06:18:29.973Z,0.74
2022-11-21T06:19:32.164Z,0.78
2022-11-21T06:20:33.986Z,0.83
2022-11-21T06:21:35.744Z,0.89
2022-11-21T06:22:37.660Z,0.99
2022-11-21T06:23:39.984Z,1.06
2022-11-21T06:24:42.150Z,1.17
2022-11-21T06:25:44.088Z,1.27
2022-11-21T06:26:45.831Z,1.32
2022-11-21T06:27:47.877Z,1.43
2022-11-21T06:28:50.080Z,1.54
2022-11-21T06:29:52.204Z,1.62
2022-11-21T06:30:54.651Z,1.66
2022-11-21T06:31:57.036Z,1.68
2022-11-21T06:32:59.890Z,1.79
2022-11-21T06:34:02.157Z,1.87
2022-11-21T06:35:04.566Z,1.88
2022-11-21T06:36:09.422Z,1.94
2022-11-21T06:37:11.925Z,1.99
2022-11-21T06:38:14.368Z,2.04
2022-11-21T06:39:16.086Z,2.10
2022-11-21T06:40:18.651Z,2.02
2022-11-21T06:41:22.747Z,1.98
2022-11-21T06:42:24.954Z,2.04
2022-11-21T06:43:26.634Z,2.12
2022-11-21T06:44:28.749Z,2.19
2022-11-21T06:45:32.089Z,2.28
2022-11-21T06:46:34.611Z,2.37
2022-11-21T06:47:36.517Z,2.47
2022-11-21T06:48:39.547Z,2.51
2022-11-21T06:49:41.578Z,2.52
2022-11-21T06:50:43.560Z,2.52
2022-11-21T06:51:46.447Z,2.27
2022-11-21T06:52:49.524Z,2.13
2022-11-21T06:53:57.398Z,2.23
2022-11-21T06:54:59.421Z,2.28
2022-11-21T06:56:02.742Z,2.39
2022-11-21T06:57:05.083Z,2.35
2022-11-21T06:58:06.998Z,2.43
2022-11-21T06:59:09.302Z,2.49
2022-11-21T07:00:13.444Z,2.47
2022-11-21T07:01:15.582Z,2.45
2022-11-21T07:02:17.595Z,2.50
2022-11-21T07:03:19.455Z,2.51
2022-11-21T07:04:21.390Z,2.58
2022-11-21T07:05:23.671Z,2.61
2022-11-21T07:06:25.661Z,2.73
2022-11-21T07:07:28.555Z,2.77
2022-11-21T07:08:32.564Z,2.83
2022-11-21T07:09:34.426Z,2.85
2022-11-21T07:10:36.365Z,2.91
2022-11-21T07:11:37.996Z,2.94
2022-11-21T07:12:39.749Z,2.99
2022-11-21T07:13:42.842Z,3.03
2022-11-21T07:14:45.472Z,3.02
2022-11-21T07:15:49.539Z,2.99
2022-11-21T07:16:51.592Z,2.99
2022-11-21T07:17:53.258Z,3.02
2022-11-21T07:18:55.066Z,3.04
2022-11-21T07:19:57.921Z,3.08
2022-11-21T07:21:02.756Z,3.02
2022-11-21T07:22:05.199Z,3.06
2022-11-21T07:23:07.994Z,3.06
2022-11-21T07:24:10.643Z,3.04
2022-11-21T07:25:12.440Z,3.07
2022-11-21T07:26:15.466Z,3.12
2022-11-21T07:27:17.680Z,3.18
2022-11-21T07:28:20.029Z,3.21
2022-11-21T07:29:21.897Z,3.22
2022-11-21T07:30:23.749Z,3.26
2022-11-21T07:31:26.225Z,3.26
2022-11-21T07:32:28.320Z,3.29
2022-11-21T07:33:30.822Z,3.30
2022-11-21T07:34:32.633Z,3.31
2022-11-21T07:35:35.609Z,3.30
2022-11-21T07:36:37.872Z,3.32
2022-11-21T07:37:39.578Z,3.33
2022-11-21T07:38:42.556Z,3.38
2022-11-21T07:39:45.210Z,3.38
2022-11-21T07:40:47.264Z,3.36
2022-11-21T07:41:48.883Z,3.36
2022-11-21T07:42:50.651Z,3.35
2022-11-21T07:43:53.147Z,3.31
2022-11-21T07:44:55.016Z,3.31
2022-11-21T07:45:56.739Z,3.32
2022-11-21T07:46:59.020Z,3.32
2022-11-21T07:48:02.716Z,3.25
2022-11-21T07:49:04.638Z,3.26
2022-11-21T07:50:10.790Z,3.17
2022-11-21T07:51:12.822Z,3.11
2022-11-21T07:52:14.540Z,3.10
2022-11-21T07:53:17.503Z,3.14
2022-11-21T07:54:20.113Z,3.07
2022-11-21T07:55:22.649Z,2.87
2022-11-21T07:56:24.532Z,2.78
2022-11-21T07:57:26.843Z,2.81
2022-11-21T07:58:28.623Z,2.78
2022-11-21T07:59:31.009Z,2.65
2022-11-21T08:00:35.742Z,2.65
2022-11-21T08:01:42.598Z,2.66
2022-11-21T08:02:42.640Z,2.66
2022-11-21T08:03:45.657Z,2.68
2022-11-21T08:04:47.908Z,2.73
2022-11-21T08:05:49.684Z,2.73
2022-11-21T08:06:52.429Z,2.76
2022-11-21T08:07:54.196Z,2.76
2022-11-21T08:08:56.120Z,2.83
2022-11-21T08:09:58.659Z,2.86
2022-11-21T08:11:06.547Z,2.90
2022-11-21T08:12:09.239Z,2.92
2022-11-21T08:13:12.615Z,2.97
2022-11-21T08:14:15.264Z,2.99
2022-11-21T08:15:17.305Z,3.03
2022-11-21T08:16:19.082Z,3.13
2022-11-21T08:17:20.815Z,3.17
2022-11-21T08:18:22.490Z,3.20
2022-11-21T08:19:24.324Z,3.27
2022-11-21T08:20:26.632Z,3.21
2022-11-21T08:21:28.952Z,3.27
2022-11-21T08:22:31.197Z,3.31
2022-11-21T08:23:33.083Z,3.38
2022-11-21T08:24:35.057Z,3.39
2022-11-21T08:25:38.433Z,3.40
2022-11-21T08:26:40.748Z,3.40
2022-11-21T08:27:43.098Z,3.48
2022-11-21T08:28:45.740Z,3.49
2022-11-21T08:29:47.755Z,3.47
2022-11-21T08:30:49.662Z,3.44
2022-11-21T08:31:51.531Z,3.45
2022-11-21T08:32:54.401Z,3.50
2022-11-21T08:33:56.501Z,3.53
2022-11-21T08:34:59.124Z,3.57
2022-11-21T08:36:07.302Z,3.58
2022-11-21T08:37:09.930Z,3.47
2022-11-21T08:38:11.822Z,3.50
2022-11-21T08:39:13.617Z,3.50
2022-11-21T08:40:17.771Z,3.53
2022-11-21T08:41:19.958Z,3.58
2022-11-21T08:42:22.359Z,3.58
2022-11-21T08:43:24.344Z,3.58
2022-11-21T08:44:26.389Z,3.50
2022-11-21T08:45:29.172Z,3.55
2022-11-21T08:46:31.776Z,3.55
2022-11-21T08:47:33.557Z,3.58
2022-11-21T08:48:35.852Z,3.48
2022-11-21T08:49:38.743Z,3.48
2022-11-21T08:50:40.690Z,3.47
2022-11-21T08:51:42.391Z,3.47
2022-11-21T08:52:44.339Z,3.50
2022-11-21T08:53:46.070Z,3.54
2022-11-21T08:54:48.322Z,3.47
2022-11-21T08:55:50.115Z,3.48
2022-11-21T08:56:52.935Z,3.41
2022-11-21T08:57:55.920Z,3.42
2022-11-21T08:58:58.431Z,3.40
2022-11-21T09:00:00.163Z,3.43
2022-11-21T09:01:02.186Z,3.34
2022-11-21T09:02:04.080Z,3.32
2022-11-21T09:03:05.982Z,3.24
2022-11-21T09:04:08.657Z,3.16
2022-11-21T09:05:10.350Z,3.15
2022-11-21T09:06:14.201Z,3.07
2022-11-21T09:07:16.444Z,3.06
2022-11-21T09:08:18.240Z,3.07
2022-11-21T09:09:25.080Z,3.08
2022-11-21T09:10:25.919Z,3.10
2022-11-21T09:11:27.904Z,3.09
2022-11-21T09:12:30.744Z,2.97
2022-11-21T09:13:33.598Z,2.89
2022-11-21T09:14:35.390Z,2.82
2022-11-21T09:15:37.557Z,2.63
2022-11-21T09:16:39.374Z,2.69
2022-11-21T09:17:41.127Z,2.70
2022-11-21T09:18:43.631Z,2.66
2022-11-21T09:19:45.306Z,2.46
2022-11-21T09:20:47.241Z,2.51
2022-11-21T09:21:50.151Z,2.35
2022-11-21T09:22:52.017Z,2.39
2022-11-21T09:23:53.637Z,2.45
2022-11-21T09:24:55.289Z,2.48
2022-11-21T09:25:58.886Z,2.52
2022-11-21T09:27:00.978Z,2.59
2022-11-21T09:28:04.643Z,2.57
2022-11-21T09:29:06.616Z,2.49
2022-11-21T09:30:11.223Z,2.46
2022-11-21T09:31:13.558Z,2.47
2022-11-21T09:32:15.452Z,2.47
2022-11-21T09:33:17.167Z,2.44
2022-11-21T09:34:19.608Z,2.50
2022-11-21T09:35:21.325Z,2.50
2022-11-21T09:36:23.026Z,2.52
2022-11-21T09:37:25.021Z,2.61
2022-11-21T09:38:27.327Z,2.65
2022-11-21T09:39:29.558Z,2.71
2022-11-21T09:40:33.664Z,2.71
2022-11-21T09:42:14.034Z,2.76
2022-11-21T09:43:38.003Z,2.71
2022-11-21T09:45:00.376Z,2.66
2022-11-21T09:46:12.023Z,2.71
2022-11-21T09:47:23.381Z,2.73
2022-11-21T09:48:33.104Z,2.77
2022-11-21T09:49:39.484Z,2.83
2022-11-21T09:50:49.370Z,2.89
2022-11-21T09:51:50.263Z,2.88
2022-11-21T09:53:03.472Z,2.91
2022-11-21T09:54:09.021Z,2.97
2022-11-21T09:55:31.701Z,3.05
2022-11-21T09:56:37.387Z,3.10
2022-11-21T09:57:39.333Z,3.01
2022-11-21T09:58:45.257Z,3.03
2022-11-21T09:59:48.727Z,2.97
2022-11-21T10:00:52.525Z,2.95
2022-11-21T10:01:55.129Z,2.94
2022-11-21T10:02:58.671Z,2.96
2022-11-21T10:04:01.657Z,2.96
2022-11-21T10:05:06.252Z,2.87
2022-11-21T10:06:23.513Z,2.93
2022-11-21T10:09:20.042Z,3.03
2022-11-21T10:10:50.595Z,3.06
2022-11-21T10:12:05.355Z,2.99
2022-11-21T10:13:11.376Z,2.90
2022-11-21T10:14:52.775Z,2.89
2022-11-21T10:16:04.545Z,2.82
2022-11-21T10:17:25.741Z,2.57
2022-11-21T11:50:34.589Z,0.31
2022-11-21T11:51:42.564Z,0.20
2022-11-21T11:53:17.365Z,0.19
2022-11-21T11:54:25.936Z,0.20
2022-11-21T11:55:40.732Z,0.25
2022-11-21T11:56:45.021Z,0.32
2022-11-21T11:57:50.584Z,0.37
2022-11-21T12:00:31.663Z,0.56
2022-11-21T12:01:40.199Z,0.50
2022-11-21T12:03:05.235Z,0.52
2022-11-21T12:04:16.125Z,0.54
2022-11-21T12:05:27.272Z,0.52
2022-11-21T12:07:10.629Z,0.60
2022-11-21T12:08:38.852Z,0.59
2022-11-21T12:08:54.001Z,0.64
2022-11-21T12:10:29.788Z,0.74
2022-11-21T12:11:50.885Z,0.69
2022-11-21T12:12:56.673Z,0.67
2022-11-21T12:14:02.252Z,0.63
2022-11-21T12:15:25.112Z,0.71
2022-11-21T12:16:29.237Z,0.80
2022-11-21T12:17:51.708Z,0.80
2022-11-21T12:19:09.657Z,0.90
2022-11-21T12:20:19.095Z,0.95
2022-11-21T12:21:22.259Z,0.88
2022-11-21T12:22:24.553Z,0.96
2022-11-21T12:23:30.252Z,0.92
2022-11-21T12:24:39.800Z,0.91
2022-11-21T12:25:55.603Z,0.82
2022-11-21T12:27:18.317Z,0.88
2022-11-21T12:28:24.829Z,0.97
2022-11-21T12:29:54.570Z,1.01
2022-11-21T12:31:05.968Z,1.03
2022-11-21T12:32:26.323Z,1.04
2022-11-21T12:33:32.006Z,0.88
2022-11-21T12:34:40.763Z,0.89
2022-11-21T12:36:04.721Z,0.86
2022-11-21T12:37:38.248Z,0.79
2022-11-21T12:38:53.102Z,0.75
2022-11-21T12:39:58.875Z,0.73
2022-11-21T12:41:21.432Z,0.85
2022-11-21T12:42:27.220Z,0.87
2022-11-21T12:43:42.107Z,0.83
2022-11-21T12:45:02.902Z,0.86
2022-11-21T12:46:20.931Z,0.66
2022-11-21T12:47:35.741Z,0.55
2022-11-21T12:49:04.389Z,0.69
2022-11-21T12:50:22.849Z,0.67
2022-11-21T12:51:50.043Z,0.61
2022-11-21T12:52:58.614Z,0.63
2022-11-21T12:54:16.237Z,0.52
2022-11-21T12:55:36.541Z,0.44
2022-11-21T12:56:42.759Z,0.36
2022-11-21T12:57:57.730Z,0.38
2022-11-21T12:59:01.954Z,0.43
2022-11-21T13:00:11.314Z,0.38
2022-11-21T13:01:21.407Z,0.38
2022-11-21T13:02:58.530Z,0.38
2022-11-21T13:04:07.238Z,0.29
2022-11-21T13:05:12.902Z,0.22
2022-11-21T13:06:31.688Z,0.12
2022-11-21T13:07:34.133Z,0.11
2022-11-21T13:08:38.803Z,0.11
2022-11-21T13:09:44.283Z,0.10
2022-11-21T13:10:50.003Z,0.10
2022-11-21T13:12:11.360Z,0.06
2022-11-21T13:13:23.378Z,0.09
2022-11-21T13:14:54.633Z,0.04
2022-11-21T13:16:07.611Z,-0.03
2022-11-21T13:17:28.715Z,-0.03
2022-11-21T13:18:37.089Z,-0.01
2022-11-21T13:20:01.027Z,0.04
2022-11-21T13:21:04.971Z,-0.02
2022-11-21T13:22:27.687Z,-0.12
2022-11-21T13:23:42.197Z,-0.14
2022-11-21T13:24:48.281Z,-0.08
2022-11-21T13:25:50.797Z,0.02
2022-11-21T13:26:53.795Z,0.07
2022-11-21T13:28:14.521Z,0.07
2022-11-21T13:29:16.472Z,0.04
2022-11-21T13:30:21.488Z,0.05
2022-11-21T13:31:31.802Z,0.05
2022-11-21T13:32:52.652Z,0.04
2022-11-21T13:33:55.492Z,0.05
2022-11-21T13:34:57.757Z,0.14
2022-11-21T13:36:12.289Z,0.25
2022-11-21T13:37:17.980Z,0.34
2022-11-21T13:38:19.787Z,0.43
2022-11-21T13:39:28.665Z,0.50
2022-11-21T13:40:37.055Z,0.52
2022-11-21T13:41:48.265Z,0.56
2022-11-21T13:43:32.857Z,0.50
2022-11-21T13:44:35.210Z,0.44
2022-11-21T13:45:45.129Z,0.59
2022-11-21T13:48:19.924Z,0.62
2022-11-21T13:49:25.642Z,0.44
2022-11-21T13:50:43.353Z,0.39
2022-11-21T13:51:49.024Z,0.38
2022-11-21T13:54:27.288Z,0.33
2022-11-21T13:55:57.786Z,0.37
2022-11-21T13:57:16.303Z,0.54
2022-11-21T13:58:27.711Z,0.65
2022-11-21T13:59:49.030Z,0.64
2022-11-21T14:01:28.806Z,0.73
2022-11-21T14:02:52.823Z,0.81
2022-11-21T14:04:04.243Z,0.85
2022-11-21T14:05:39.119Z,0.88
2022-11-21T14:06:42.140Z,0.93
2022-11-21T14:07:45.040Z,0.95
2022-11-21T14:09:25.808Z,0.91
2022-11-21T14:10:33.468Z,0.84
2022-11-21T14:11:42.164Z,0.67
2022-11-21T14:12:47.769Z,0.68
2022-11-21T14:13:49.988Z,0.73
2022-11-21T14:15:04.558Z,0.75
2022-11-21T14:16:29.703Z,0.73
2022-11-21T14:17:41.745Z,0.52
2022-11-21T14:18:47.205Z,0.45
2022-11-21T14:19:52.958Z,0.44
2022-11-21T14:20:58.102Z,0.52
2022-11-21T14:22:00.559Z,0.60
2022-11-21T14:23:05.689Z,0.68
2022-11-21T14:24:14.056Z,0.71
2022-11-21T14:25:22.149Z,0.73
2022-11-21T14:26:26.593Z,0.67
2022-11-21T14:27:31.850Z,0.69
2022-11-21T14:28:34.810Z,0.64
2022-11-21T14:29:40.496Z,0.68
2022-11-21T14:30:44.163Z,0.65
2022-11-21T14:31:47.572Z,0.55
2022-11-21T14:32:54.122Z,0.51
2022-11-21T14:33:57.898Z,0.56
2022-11-21T14:35:09.565Z,0.61
2022-11-21T14:36:25.873Z,0.69
2022-11-21T14:37:27.794Z,0.75
2022-11-21T14:38:36.964Z,0.88
2022-11-21T14:39:44.063Z,0.91
2022-11-21T14:40:44.353Z,0.81
2022-11-21T14:41:52.047Z,0.76
2022-11-21T14:42:54.479Z,0.75
2022-11-21T14:44:02.350Z,0.59
2022-11-21T14:45:18.929Z,0.61
2022-11-21T14:46:20.850Z,0.59
2022-11-21T14:47:26.334Z,0.68
2022-11-21T14:48:28.973Z,0.67
2022-11-21T14:49:31.188Z,0.66
2022-11-21T14:50:35.915Z,0.61
2022-11-21T14:51:39.956Z,0.51
2022-11-21T14:52:41.996Z,0.53
2022-11-21T14:53:45.001Z,0.54
2022-11-21T14:56:03.463Z,0.53
2022-11-21T14:57:10.630Z,0.59
2022-11-21T14:58:16.161Z,0.60
2022-11-21T14:59:27.496Z,0.73
2022-11-21T15:01:34.942Z,0.78
2022-11-21T15:02:37.252Z,0.84
2022-11-21T15:03:41.262Z,0.90
2022-11-21T15:04:44.393Z,0.93
2022-11-21T15:06:52.055Z,0.85
2022-11-21T15:08:10.476Z,0.77
2022-11-21T15:10:25.084Z,0.85
2022-11-21T15:10:36.128Z,0.78
2022-11-21T15:11:12.381Z,0.83
2022-11-21T15:12:33.927Z,0.91
2022-11-21T15:13:58.477Z,1.06
2022-11-21T15:15:00.739Z,1.10
2022-11-21T15:16:04.827Z,1.16
2022-11-21T15:17:10.350Z,1.20
2022-11-21T15:18:27.603Z,1.21
2022-11-21T15:19:22.724Z,1.22
2022-11-21T15:20:27.390Z,1.09
2022-11-21T15:21:30.030Z,1.11
2022-11-21T15:22:37.914Z,1.12
2022-11-21T15:23:39.916Z,1.17
2022-11-21T15:24:44.315Z,1.27
2022-11-21T15:25:47.224Z,1.18
2022-11-21T15:26:50.126Z,1.24
2022-11-21T15:28:04.836Z,1.30
2022-11-21T15:29:11.321Z,1.27
2022-11-21T15:30:30.736Z,1.18
2022-11-21T15:31:32.669Z,1.20
2022-11-21T15:32:54.815Z,1.18
2022-11-21T15:35:31.936Z,1.08
2022-11-21T15:36:33.545Z,1.14
2022-11-21T15:37:35.658Z,1.23
2022-11-21T15:38:43.339Z,1.10
2022-11-21T15:39:48.767Z,1.06
2022-11-21T15:41:06.816Z,0.86
2022-11-21T15:42:29.391Z,0.92
2022-11-21T15:43:46.021Z,0.92
2022-11-21T15:45:02.696Z,0.95
2022-11-21T15:46:11.406Z,0.89
2022-11-21T15:47:14.059Z,0.84
2022-11-21T15:48:15.874Z,0.92
2022-11-21T15:49:33.727Z,0.91
2022-11-21T15:50:23.402Z,0.87
2022-11-21T15:51:59.655Z,0.84
2022-11-21T15:52:35.354Z,0.92
2022-11-21T15:53:38.169Z,0.95
2022-11-21T15:54:39.974Z,1.05
2022-11-21T15:55:41.694Z,1.05
2022-11-21T15:56:43.918Z,0.97
2022-11-21T15:57:15.342Z,0.94
2022-11-21T15:57:46.987Z,1.02
2022-11-21T15:58:49.384Z,0.95
2022-11-21T15:59:51.152Z,0.95
2022-11-21T16:00:53.019Z,0.96
2022-11-21T16:01:55.516Z,0.93
2022-11-21T16:02:57.305Z,0.99
2022-11-21T16:04:01.075Z,0.98
2022-11-21T16:05:03.538Z,0.89
2022-11-21T16:06:07.735Z,0.95
2022-11-21T16:07:09.732Z,1.05
2022-11-21T16:08:11.550Z,1.09
2022-11-21T16:09:13.512Z,1.14
2022-11-21T16:10:21.328Z,1.01
2022-11-21T16:11:33.100Z,0.98
2022-11-21T16:12:35.828Z,0.87
2022-11-21T16:13:38.098Z,0.78
2022-11-21T16:14:40.319Z,0.73
2022-11-21T16:15:42.116Z,0.69
2022-11-21T16:16:44.348Z,0.72
2022-11-21T16:17:47.710Z,0.66
2022-11-21T16:18:50.222Z,0.64
2022-11-21T16:19:52.103Z,0.58
2022-11-21T16:21:07.016Z,0.54
2022-11-21T16:22:09.548Z,0.53
2022-11-21T16:23:12.864Z,0.60
2022-11-21T16:24:14.823Z,0.64
2022-11-21T16:25:16.749Z,0.62
2022-11-21T16:26:19.101Z,0.58
2022-11-21T16:27:21.907Z,0.58
2022-11-21T16:28:24.381Z,0.65
2022-11-21T16:29:26.713Z,0.68
2022-11-21T16:30:29.579Z,0.66
2022-11-21T16:31:32.899Z,0.62
2022-11-21T16:32:35.093Z,0.56
2022-11-21T16:33:39.260Z,0.50
2022-11-21T16:34:41.046Z,0.47
2022-11-21T16:35:43.893Z,0.48
2022-11-21T16:36:46.952Z,0.43
2022-11-21T16:37:49.313Z,0.44
2022-11-21T16:38:51.403Z,0.38
2022-11-21T16:39:53.219Z,0.33
2022-11-21T16:40:59.105Z,0.38
2022-11-21T16:42:01.007Z,0.36
2022-11-21T16:43:11.134Z,0.39
2022-11-21T16:44:15.089Z,0.39
2022-11-21T16:45:17.624Z,0.38
2022-11-21T16:46:22.118Z,0.25
2022-11-21T16:47:24.187Z,0.23
2022-11-21T16:48:29.545Z,0.29
2022-11-21T16:49:32.615Z,0.30
2022-11-21T16:50:34.604Z,0.32
2022-11-21T16:51:36.335Z,0.32
2022-11-21T16:52:38.055Z,0.27
2022-11-21T16:53:41.501Z,0.28
2022-11-21T16:54:43.752Z,0.31
2022-11-21T16:55:45.767Z,0.39
2022-11-21T16:56:48.108Z,0.42
2022-11-21T16:57:50.419Z,0.45
2022-11-21T16:58:53.572Z,0.49
2022-11-21T16:59:57.781Z,0.46
2022-11-21T17:01:14.509Z,0.50
2022-11-21T17:02:18.620Z,0.60
2022-11-21T17:03:20.500Z,0.67
2022-11-21T17:04:22.364Z,0.68
2022-11-21T17:05:24.577Z,0.67
2022-11-21T17:06:29.249Z,0.69
2022-11-21T17:07:31.986Z,0.70
2022-11-21T17:08:35.709Z,0.72
2022-11-21T17:09:37.562Z,0.81
2022-11-21T17:10:40.026Z,0.80
2022-11-21T17:11:42.286Z,0.83
2022-11-21T17:12:44.964Z,0.87
2022-11-21T17:13:48.422Z,0.83
2022-11-21T17:14:50.862Z,0.88
2022-11-21T17:15:52.673Z,0.97
2022-11-21T17:16:54.454Z,0.98
2022-11-21T17:17:57.268Z,0.98
2022-11-21T17:19:01.014Z,1.01
2022-11-21T17:20:05.079Z,1.06
2022-11-21T17:21:09.895Z,1.06
2022-11-21T17:22:12.589Z,1.15
2022-11-21T17:23:14.454Z,1.17
2022-11-21T17:24:17.387Z,1.27
2022-11-21T17:25:19.658Z,1.17
2022-11-21T17:26:24.466Z,1.18
2022-11-21T17:27:26.445Z,1.17
2022-11-21T17:28:28.457Z,1.13
2022-11-21T17:29:31.233Z,1.06
2022-11-21T17:30:33.701Z,1.15
2022-11-21T17:31:35.885Z,1.21
2022-11-21T17:32:40.005Z,1.22